createdAt,value
2023-03-28T00:01:14.840Z,100.00
2023-03-28T00:03:41.524Z,100.00
2023-03-28T00:06:11.300Z,100.00
2023-03-28T00:08:39.519Z,100.00
2023-03-28T00:11:09.736Z,100.00
2023-03-28T00:13:37.165Z,100.00
2023-03-28T00:16:12.905Z,100.00
2023-03-28T00:18:41.530Z,100.00
2023-03-28T00:21:29.549Z,100.00
2023-03-28T00:24:01.996Z,100.00
2023-03-28T00:26:35.992Z,100.00
2023-03-28T00:29:05.362Z,100.00
2023-03-28T00:31:34.972Z,100.00
2023-03-28T00:34:01.967Z,100.00
2023-03-28T00:36:29.580Z,100.00
2023-03-28T00:38:57.841Z,100.00
2023-03-28T00:41:31.234Z,100.00
2023-03-28T00:43:59.096Z,100.00
2023-03-28T00:46:32.380Z,100.00
2023-03-28T00:49:26.174Z,100.00
2023-03-28T00:51:57.647Z,100.00
2023-03-28T00:54:28.073Z,100.00
2023-03-28T00:56:59.308Z,100.00
2023-03-28T00:59:30.334Z,100.00
2023-03-28T01:01:57.058Z,100.00
2023-03-28T01:04:27.286Z,100.00
2023-03-28T01:06:58.858Z,100.00
2023-03-28T01:09:26.949Z,100.00
2023-03-28T01:11:55.340Z,100.00
2023-03-28T01:14:24.933Z,100.00
2023-03-28T01:16:52.655Z,100.00
2023-03-28T01:19:59.235Z,100.00
2023-03-28T01:22:59.484Z,100.00
2023-03-28T01:26:05.323Z,100.00
2023-03-28T01:28:37.799Z,100.00
2023-03-28T01:31:41.833Z,100.00
2023-03-28T01:34:27.323Z,100.00
2023-03-28T01:37:12.719Z,100.00
2023-03-28T01:40:11.629Z,100.00
2023-03-28T01:42:47.264Z,100.00
2023-03-28T01:45:26.577Z,100.00
2023-03-28T01:48:34.602Z,100.00
2023-03-28T01:51:24.992Z,100.00
2023-03-28T01:54:19.439Z,100.00
2023-03-28T01:57:26.408Z,100.00
2023-03-28T02:00:20.101Z,100.00
2023-03-28T02:02:53.907Z,100.00
2023-03-28T02:05:22.482Z,100.00
2023-03-28T02:07:52.030Z,100.00
2023-03-28T02:10:23.930Z,100.00
2023-03-28T02:12:58.632Z,100.00
2023-03-28T02:15:27.905Z,100.00
2023-03-28T02:18:01.291Z,100.00
2023-03-28T02:20:31.783Z,100.00
2023-03-28T02:23:03.352Z,100.00
2023-03-28T02:25:31.926Z,100.00
2023-03-28T02:28:03.487Z,100.00
2023-03-28T02:30:30.072Z,100.00
2023-03-28T02:33:05.803Z,100.00
2023-03-28T02:36:04.246Z,100.00
2023-03-28T02:38:52.725Z,100.00
2023-03-28T02:41:46.977Z,100.00
2023-03-28T02:44:35.205Z,100.00
2023-03-28T02:47:13.600Z,100.00
2023-03-28T02:50:13.783Z,100.00
2023-03-28T02:52:59.724Z,100.00
2023-03-28T02:55:40.174Z,100.00
2023-03-28T02:58:18.044Z,100.00
2023-03-28T03:00:44.568Z,100.00
2023-03-28T03:03:11.747Z,100.00
2023-03-28T03:05:38.517Z,100.00
2023-03-28T03:08:05.416Z,100.00
2023-03-28T03:10:31.922Z,100.00
2023-03-28T03:12:58.581Z,100.00
2023-03-28T03:15:26.017Z,100.00
2023-03-28T03:17:52.832Z,100.00
2023-03-28T03:20:19.514Z,100.00
2023-03-28T03:22:46.045Z,100.00
2023-03-28T03:25:14.547Z,100.00
2023-03-28T03:27:41.501Z,100.00
2023-03-28T03:30:10.102Z,100.00
2023-03-28T03:32:36.761Z,100.00
2023-03-28T03:35:03.537Z,100.00
2023-03-28T03:37:30.056Z,100.00
2023-03-28T03:39:56.556Z,100.00
2023-03-28T03:42:23.180Z,100.00
2023-03-28T03:44:49.718Z,100.00
2023-03-28T03:47:17.849Z,100.00
2023-03-28T03:49:44.503Z,100.00
2023-03-28T03:52:11.043Z,100.00
2023-03-28T03:54:38.316Z,100.00
2023-03-28T03:57:05.386Z,100.00
2023-03-28T03:59:32.110Z,100.00
2023-03-28T04:01:58.863Z,100.00
2023-03-28T04:04:25.997Z,100.00
2023-03-28T04:06:52.601Z,100.00
2023-03-28T04:09:20.618Z,100.00
2023-03-28T04:11:47.294Z,100.00
2023-03-28T04:14:13.879Z,100.00
2023-03-28T04:16:41.701Z,100.00
2023-03-28T04:19:10.762Z,100.00
2023-03-28T04:21:41.671Z,100.00
2023-03-28T04:24:09.144Z,100.00
2023-03-28T04:26:37.975Z,100.00
2023-03-28T04:29:05.249Z,100.00
2023-03-28T04:31:35.801Z,100.00
2023-03-28T04:34:06.280Z,100.00
2023-03-28T04:36:33.415Z,100.00
2023-03-28T04:39:02.339Z,100.00
2023-03-28T04:41:29.940Z,100.00
2023-03-28T04:43:56.544Z,100.00
2023-03-28T04:46:23.212Z,100.00
2023-03-28T04:48:49.787Z,100.00
2023-03-28T04:51:24.443Z,100.00
2023-03-28T04:53:51.117Z,100.00
2023-03-28T04:56:17.622Z,100.00
2023-03-28T04:58:44.369Z,100.00
2023-03-28T05:01:10.968Z,100.00
2023-03-28T05:03:38.694Z,100.00
2023-03-28T05:06:06.512Z,100.00
2023-03-28T05:08:33.100Z,100.00
2023-03-28T05:10:59.936Z,100.00
2023-03-28T05:13:26.756Z,100.00
2023-03-28T05:15:53.338Z,100.00
2023-03-28T05:18:19.908Z,100.00
2023-03-28T05:20:46.545Z,100.00
2023-03-28T05:23:13.157Z,100.00
2023-03-28T05:25:39.972Z,100.00
2023-03-28T05:28:06.569Z,100.00
2023-03-28T05:30:33.496Z,100.00
2023-03-28T05:33:00.749Z,100.00
2023-03-28T05:35:27.409Z,100.00
2023-03-28T05:37:53.972Z,100.00
2023-03-28T05:40:20.597Z,100.00
2023-03-28T05:42:47.244Z,100.00
2023-03-28T05:45:14.058Z,100.00
2023-03-28T05:47:40.792Z,100.00
2023-03-28T05:50:08.456Z,100.00
2023-03-28T05:52:35.285Z,100.00
2023-03-28T05:55:01.901Z,100.00
2023-03-28T05:57:28.638Z,100.00
2023-03-28T05:59:55.895Z,100.00
2023-03-28T06:02:24.457Z,100.00
2023-03-28T06:04:53.644Z,100.00
2023-03-28T06:07:28.214Z,100.00
2023-03-28T06:10:02.177Z,100.00
2023-03-28T06:12:28.759Z,100.00
2023-03-28T06:14:57.111Z,100.00
2023-03-28T06:17:23.849Z,100.00
2023-03-28T06:19:50.935Z,100.00
2023-03-28T06:22:17.519Z,100.00
2023-03-28T06:24:44.139Z,100.00
2023-03-28T06:27:10.694Z,100.00
2023-03-28T06:29:37.200Z,100.00
2023-03-28T06:32:04.310Z,100.00
2023-03-28T06:34:31.102Z,100.00
2023-03-28T06:36:57.820Z,100.00
2023-03-28T06:39:24.365Z,100.00
2023-03-28T06:41:51.137Z,100.00
2023-03-28T06:44:17.641Z,100.00
2023-03-28T06:46:44.153Z,100.00
2023-03-28T06:49:10.736Z,100.00
2023-03-28T06:51:37.272Z,100.00
2023-03-28T06:54:03.906Z,100.00
2023-03-28T06:56:30.478Z,100.00
2023-03-28T06:58:57.049Z,100.00
2023-03-28T07:01:23.656Z,100.00
2023-03-28T07:03:52.413Z,100.00
2023-03-28T07:06:19.235Z,100.00
2023-03-28T07:08:45.830Z,100.00
2023-03-28T07:11:12.332Z,100.00
2023-03-28T07:13:38.878Z,100.00
2023-03-28T07:16:13.420Z,100.00
2023-03-28T07:18:41.235Z,100.00
2023-03-28T07:21:13.954Z,100.00
2023-03-28T07:23:40.898Z,100.00
2023-03-28T07:26:09.503Z,100.00
2023-03-28T07:28:36.778Z,100.00
2023-03-28T07:31:05.049Z,100.00
2023-03-28T07:33:37.163Z,100.00
2023-03-28T07:36:16.567Z,100.00
2023-03-28T07:38:43.167Z,100.00
2023-03-28T07:41:09.737Z,100.00
2023-03-28T07:43:38.746Z,100.00
2023-03-28T07:46:08.538Z,100.00
2023-03-28T07:48:36.764Z,100.00
2023-03-28T07:51:06.434Z,100.00
2023-03-28T07:53:34.418Z,100.00
2023-03-28T07:56:00.970Z,100.00
2023-03-28T07:58:27.522Z,100.00
2023-03-28T08:00:54.357Z,100.00
2023-03-28T08:03:23.663Z,100.00
2023-03-28T08:05:52.181Z,100.00
2023-03-28T08:08:22.153Z,100.00
2023-03-28T08:10:51.386Z,100.00
2023-03-28T08:13:20.878Z,100.00
2023-03-28T08:15:57.581Z,100.00
2023-03-28T08:18:26.151Z,100.00
2023-03-28T08:20:59.851Z,100.00
2023-03-28T08:23:27.105Z,100.00
2023-03-28T08:26:04.632Z,100.00
2023-03-28T08:28:33.151Z,100.00
2023-03-28T08:31:00.678Z,100.00
2023-03-28T08:33:29.081Z,100.00
2023-03-28T08:35:58.953Z,100.00
2023-03-28T08:38:25.569Z,100.00
2023-03-28T08:41:03.178Z,100.00
2023-03-28T08:43:35.790Z,100.00
2023-03-28T08:46:02.502Z,100.00
2023-03-28T08:48:39.603Z,100.00
2023-03-28T08:51:15.051Z,100.00
2023-03-28T08:53:44.764Z,100.00
2023-03-28T08:56:14.113Z,100.00
2023-03-28T08:59:10.493Z,100.00
2023-03-28T09:01:37.369Z,100.00
2023-03-28T09:04:04.335Z,100.00
2023-03-28T09:06:31.071Z,100.00
2023-03-28T09:09:18.724Z,100.00
2023-03-28T09:12:02.682Z,100.00
2023-03-28T09:14:41.576Z,100.00
2023-03-28T09:17:08.081Z,100.00
2023-03-28T09:19:49.883Z,100.00
2023-03-28T09:22:19.421Z,100.00
2023-03-28T09:25:23.317Z,100.00
2023-03-28T09:28:14.574Z,100.00
2023-03-28T09:30:48.593Z,100.00
2023-03-28T09:33:21.286Z,100.00
2023-03-28T09:35:50.430Z,100.00
2023-03-28T09:38:22.987Z,100.00
2023-03-28T09:40:53.651Z,97.72
2023-03-28T09:43:50.215Z,96.38
2023-03-28T09:46:41.648Z,86.87
2023-03-28T09:49:20.285Z,90.04
2023-03-28T09:51:49.462Z,90.95
2023-03-28T09:54:16.081Z,88.33
2023-03-28T09:56:44.868Z,87.89
2023-03-28T09:59:25.064Z,84.73
2023-03-28T10:01:54.563Z,89.95
2023-03-28T10:04:30.502Z,98.13
2023-03-28T10:07:19.652Z,99.38
2023-03-28T10:09:51.851Z,83.72
2023-03-28T10:12:22.436Z,89.84
2023-03-28T10:14:49.511Z,86.87
2023-03-28T10:17:23.796Z,80.89
2023-03-28T10:19:51.406Z,81.26
2023-03-28T10:22:23.664Z,86.52
2023-03-28T10:24:50.775Z,84.95
2023-03-28T10:27:36.158Z,84.40
2023-03-28T10:30:19.429Z,78.75
2023-03-28T10:33:14.703Z,84.96
2023-03-28T10:36:03.842Z,81.89
2023-03-28T10:38:38.012Z,76.96
2023-03-28T10:41:36.004Z,80.60
2023-03-28T10:44:26.058Z,85.38
2023-03-28T10:46:53.757Z,77.99
2023-03-28T10:49:21.204Z,85.62
2023-03-28T10:51:47.889Z,84.71
2023-03-28T10:54:20.584Z,77.85
2023-03-28T10:56:52.631Z,75.72
2023-03-28T10:59:19.406Z,73.08
2023-03-28T11:01:54.842Z,76.20
2023-03-28T11:04:30.979Z,80.49
2023-03-28T11:07:21.505Z,77.82
2023-03-28T11:10:13.427Z,73.30
2023-03-28T11:13:08.099Z,70.97
2023-03-28T11:15:48.209Z,71.07
2023-03-28T11:18:33.569Z,74.23
2023-03-28T11:21:21.831Z,75.26
2023-03-28T11:24:26.830Z,78.01
2023-03-28T11:27:15.568Z,73.09
2023-03-28T11:30:02.839Z,79.25
2023-03-28T11:32:44.602Z,78.07
2023-03-28T11:35:14.188Z,73.98
2023-03-28T11:37:46.721Z,70.98
2023-03-28T11:40:23.180Z,66.96
2023-03-28T11:43:06.515Z,65.61
2023-03-28T11:45:53.573Z,66.56
2023-03-28T11:48:26.303Z,68.12
2023-03-28T11:51:13.422Z,66.26
2023-03-28T11:53:39.882Z,63.31
2023-03-28T11:56:06.828Z,60.93
2023-03-28T11:58:39.284Z,61.84
2023-03-28T12:01:15.594Z,62.62
2023-03-28T12:04:01.200Z,63.31
2023-03-28T12:07:02.356Z,67.96
2023-03-28T12:09:46.731Z,64.21
2023-03-28T12:12:19.309Z,68.12
2023-03-28T12:14:49.342Z,69.81
2023-03-28T12:17:25.460Z,67.32
2023-03-28T12:19:53.919Z,66.48
2023-03-28T12:22:30.499Z,65.01
2023-03-28T12:25:33.501Z,67.67
2023-03-28T12:28:30.544Z,67.85
2023-03-28T12:31:14.835Z,68.89
2023-03-28T12:33:51.521Z,68.16
2023-03-28T12:36:34.038Z,66.86
2023-03-28T12:39:04.178Z,66.92
2023-03-28T12:41:36.343Z,63.17
2023-03-28T12:44:27.356Z,64.76
2023-03-28T12:47:01.781Z,75.45
2023-03-28T12:49:37.659Z,72.17
2023-03-28T12:52:07.762Z,68.14
2023-03-28T12:54:52.472Z,67.82
2023-03-28T12:57:53.037Z,69.99
2023-03-28T13:00:39.271Z,68.99
2023-03-28T13:03:05.941Z,69.44
2023-03-28T13:05:41.377Z,67.89
2023-03-28T13:08:31.830Z,67.04
2023-03-28T13:11:13.519Z,68.30
2023-03-28T13:13:49.113Z,66.21
2023-03-28T13:16:15.694Z,69.22
2023-03-28T13:18:48.032Z,66.88
2023-03-28T13:21:41.661Z,74.62
2023-03-28T13:24:26.331Z,71.59
2023-03-28T13:27:17.149Z,71.08
2023-03-28T13:29:49.815Z,72.71
2023-03-28T13:32:21.115Z,74.11
2023-03-28T13:35:06.448Z,72.17
2023-03-28T13:37:47.427Z,69.88
2023-03-28T13:40:50.810Z,68.44
2023-03-28T13:43:24.712Z,69.55
2023-03-28T13:45:54.637Z,66.42
2023-03-28T13:48:24.619Z,67.80
2023-03-28T13:50:53.544Z,68.37
2023-03-28T13:53:20.440Z,68.53
2023-03-28T13:55:47.699Z,67.73
2023-03-28T13:58:14.709Z,65.57
2023-03-28T14:00:41.976Z,68.46
2023-03-28T14:03:15.410Z,63.71
2023-03-28T14:05:45.439Z,67.66
2023-03-28T14:08:14.829Z,68.49
2023-03-28T14:10:46.271Z,65.44
2023-03-28T14:13:18.365Z,70.53
2023-03-28T14:15:45.690Z,67.35
2023-03-28T14:18:17.266Z,68.65
2023-03-28T14:20:45.695Z,71.33
2023-03-28T14:23:26.380Z,72.63
2023-03-28T14:25:53.616Z,73.34
2023-03-28T14:28:20.400Z,70.06
2023-03-28T14:30:46.934Z,74.34
2023-03-28T14:33:19.537Z,72.80
2023-03-28T14:36:00.037Z,73.52
2023-03-28T14:38:39.546Z,73.15
2023-03-28T14:41:29.236Z,71.72
2023-03-28T14:43:57.428Z,71.92
2023-03-28T14:46:27.548Z,74.95
2023-03-28T14:49:01.285Z,68.65
2023-03-28T14:51:28.310Z,71.68
2023-03-28T14:53:56.141Z,72.47
2023-03-28T14:56:27.733Z,71.91
2023-03-28T14:59:02.372Z,72.70
2023-03-28T15:01:33.436Z,74.86
2023-03-28T15:04:05.881Z,69.03
2023-03-28T15:06:33.919Z,72.78
2023-03-28T15:09:09.246Z,72.63
2023-03-28T15:11:38.104Z,71.39
2023-03-28T15:14:06.750Z,75.28
2023-03-28T15:16:38.456Z,73.21
2023-03-28T15:19:15.839Z,75.01
2023-03-28T15:21:48.917Z,73.48
2023-03-28T15:24:18.743Z,75.35
2023-03-28T15:26:53.710Z,79.23
2023-03-28T15:29:21.854Z,77.76
2023-03-28T15:31:49.035Z,77.89
2023-03-28T15:34:24.493Z,76.97
2023-03-28T15:36:58.566Z,76.43
2023-03-28T15:39:27.596Z,80.31
2023-03-28T15:42:13.911Z,74.08
2023-03-28T15:44:41.458Z,76.49
2023-03-28T15:47:15.056Z,75.81
2023-03-28T15:49:41.732Z,79.52
2023-03-28T15:52:18.155Z,83.29
2023-03-28T15:54:49.707Z,82.77
2023-03-28T15:57:17.634Z,83.10
2023-03-28T15:59:51.190Z,83.91
2023-03-28T16:02:23.520Z,88.60
2023-03-28T16:05:15.130Z,91.71
2023-03-28T16:07:47.615Z,87.25
2023-03-28T16:10:17.734Z,87.87
2023-03-28T16:12:45.483Z,91.72
2023-03-28T16:15:12.401Z,100.00
2023-03-28T16:17:42.115Z,100.00
2023-03-28T16:20:17.808Z,100.00
2023-03-28T16:22:45.193Z,100.00
2023-03-28T16:25:12.637Z,100.00
2023-03-28T16:27:39.662Z,100.00
2023-03-28T16:30:22.830Z,100.00
2023-03-28T16:32:49.398Z,100.00
2023-03-28T16:35:16.000Z,100.00
2023-03-28T16:37:42.559Z,100.00
2023-03-28T16:40:10.515Z,100.00
2023-03-28T16:42:37.069Z,100.00
2023-03-28T16:45:04.212Z,100.00
2023-03-28T16:47:30.783Z,100.00
2023-03-28T16:49:57.386Z,100.00
2023-03-28T16:52:23.912Z,100.00
2023-03-28T16:54:50.921Z,100.00
2023-03-28T16:57:17.541Z,100.00
2023-03-28T16:59:44.161Z,100.00
2023-03-28T17:02:11.007Z,100.00
2023-03-28T17:04:37.556Z,100.00
2023-03-28T17:07:04.252Z,100.00
2023-03-28T17:09:32.784Z,100.00
2023-03-28T17:11:59.309Z,100.00
2023-03-28T17:14:25.898Z,100.00
2023-03-28T17:16:52.472Z,100.00
2023-03-28T17:19:23.049Z,100.00
2023-03-28T17:21:50.571Z,100.00
2023-03-28T17:24:17.194Z,100.00
2023-03-28T17:26:43.710Z,100.00
2023-03-28T17:29:11.958Z,100.00
2023-03-28T17:31:38.766Z,100.00
2023-03-28T17:34:05.493Z,100.00
2023-03-28T17:36:32.735Z,100.00
2023-03-28T17:38:59.517Z,100.00
2023-03-28T17:41:27.712Z,100.00
2023-03-28T17:43:56.491Z,100.00
2023-03-28T17:46:24.150Z,100.00
2023-03-28T17:48:50.912Z,100.00
2023-03-28T17:51:17.583Z,100.00
2023-03-28T17:53:46.852Z,100.00
2023-03-28T17:56:14.357Z,100.00
2023-03-28T17:58:41.075Z,100.00
2023-03-28T18:01:13.506Z,100.00
2023-03-28T18:03:40.807Z,100.00
2023-03-28T18:06:08.981Z,100.00
2023-03-28T18:08:35.785Z,100.00
2023-03-28T18:11:11.187Z,100.00
2023-03-28T18:13:38.558Z,100.00
2023-03-28T18:16:10.479Z,100.00
2023-03-28T18:18:37.735Z,100.00
2023-03-28T18:21:05.256Z,100.00
2023-03-28T18:23:31.874Z,100.00
2023-03-28T18:25:58.770Z,100.00
2023-03-28T18:28:25.974Z,100.00
2023-03-28T18:30:53.338Z,100.00
2023-03-28T18:33:22.065Z,100.00
2023-03-28T18:35:49.186Z,100.00
2023-03-28T18:38:16.136Z,100.00
2023-03-28T18:40:43.034Z,100.00
2023-03-28T18:43:10.118Z,100.00
2023-03-28T18:45:37.680Z,100.00
2023-03-28T18:48:04.804Z,100.00
2023-03-28T18:50:31.375Z,100.00
2023-03-28T18:52:58.106Z,100.00
2023-03-28T18:55:25.085Z,100.00
2023-03-28T18:57:52.818Z,100.00
2023-03-28T19:00:20.117Z,100.00
2023-03-28T19:02:47.845Z,100.00
2023-03-28T19:05:17.732Z,100.00
2023-03-28T19:07:45.017Z,100.00
2023-03-28T19:10:13.390Z,100.00
2023-03-28T19:12:41.246Z,100.00
2023-03-28T19:15:11.115Z,100.00
2023-03-28T19:17:39.943Z,100.00
2023-03-28T19:20:07.967Z,100.00
2023-03-28T19:22:35.186Z,100.00
2023-03-28T19:25:01.835Z,100.00
2023-03-28T19:27:28.427Z,100.00
2023-03-28T19:29:55.416Z,100.00
2023-03-28T19:32:21.995Z,100.00
2023-03-28T19:34:48.635Z,100.00
2023-03-28T19:37:15.212Z,100.00
2023-03-28T19:39:41.733Z,100.00
2023-03-28T19:42:08.309Z,100.00
2023-03-28T19:44:34.877Z,100.00
2023-03-28T19:47:01.467Z,100.00
2023-03-28T19:49:28.025Z,100.00
2023-03-28T19:51:54.707Z,100.00
2023-03-28T19:54:22.018Z,100.00
2023-03-28T19:56:48.691Z,100.00
2023-03-28T19:59:15.531Z,100.00
2023-03-28T20:01:42.114Z,100.00
2023-03-28T20:04:09.681Z,100.00
2023-03-28T20:06:36.679Z,100.00
2023-03-28T20:09:03.620Z,100.00
2023-03-28T20:11:30.301Z,100.00
2023-03-28T20:13:57.392Z,100.00
2023-03-28T20:16:23.976Z,100.00
2023-03-28T20:18:50.643Z,100.00
2023-03-28T20:21:17.371Z,100.00
2023-03-28T20:23:43.937Z,100.00
2023-03-28T20:26:25.813Z,100.00
2023-03-28T20:28:59.311Z,100.00
2023-03-28T20:31:26.870Z,100.00
2023-03-28T20:33:54.285Z,100.00
2023-03-28T20:36:21.181Z,100.00
2023-03-28T20:38:48.300Z,100.00
2023-03-28T20:41:17.626Z,100.00
2023-03-28T20:43:47.873Z,100.00
2023-03-28T20:46:18.528Z,100.00
2023-03-28T20:48:46.992Z,100.00
2023-03-28T20:51:17.422Z,100.00
2023-03-28T20:53:49.616Z,100.00
2023-03-28T20:56:19.195Z,100.00
2023-03-28T20:58:46.122Z,100.00
2023-03-28T21:01:14.469Z,100.00
2023-03-28T21:03:48.173Z,100.00
2023-03-28T21:06:16.024Z,100.00
2023-03-28T21:08:45.818Z,100.00
2023-03-28T21:11:22.236Z,100.00
2023-03-28T21:13:49.545Z,100.00
2023-03-28T21:16:17.195Z,100.00
2023-03-28T21:18:44.651Z,100.00
2023-03-28T21:21:12.561Z,100.00
2023-03-28T21:23:40.093Z,100.00
2023-03-28T21:26:08.543Z,100.00
2023-03-28T21:28:35.903Z,100.00
2023-03-28T21:31:07.774Z,100.00
2023-03-28T21:33:34.747Z,100.00
2023-03-28T21:36:01.443Z,100.00
2023-03-28T21:38:28.012Z,100.00
2023-03-28T21:40:54.549Z,100.00
2023-03-28T21:43:21.214Z,100.00
2023-03-28T21:45:48.878Z,100.00
2023-03-28T21:48:16.994Z,100.00
2023-03-28T21:50:53.787Z,100.00
2023-03-28T21:53:21.778Z,100.00
2023-03-28T21:55:48.415Z,100.00
2023-03-28T21:58:14.966Z,100.00
2023-03-28T22:00:41.900Z,100.00
2023-03-28T22:03:08.648Z,100.00
2023-03-28T22:05:41.335Z,100.00
2023-03-28T22:08:13.084Z,100.00
2023-03-28T22:11:16.599Z,100.00
2023-03-28T22:13:47.476Z,100.00
2023-03-28T22:16:15.555Z,100.00
2023-03-28T22:18:50.067Z,100.00
2023-03-28T22:21:17.402Z,100.00
2023-03-28T22:23:47.548Z,100.00
2023-03-28T22:26:14.721Z,100.00
2023-03-28T22:28:41.388Z,100.00
2023-03-28T22:31:08.036Z,100.00
2023-03-28T22:33:34.619Z,100.00
2023-03-28T22:36:01.295Z,100.00
2023-03-28T22:38:28.175Z,100.00
2023-03-28T22:40:54.700Z,100.00
2023-03-28T22:43:22.078Z,100.00
2023-03-28T22:45:48.646Z,100.00
2023-03-28T22:48:15.212Z,100.00
2023-03-28T22:50:47.257Z,100.00
2023-03-28T22:53:15.119Z,100.00
2023-03-28T22:55:43.668Z,100.00
2023-03-28T22:58:11.719Z,100.00
2023-03-28T23:00:39.016Z,100.00
2023-03-28T23:03:05.576Z,100.00
2023-03-28T23:05:32.501Z,100.00
2023-03-28T23:08:00.168Z,100.00
2023-03-28T23:10:27.346Z,100.00
2023-03-28T23:12:53.893Z,100.00
2023-03-28T23:15:20.559Z,100.00
2023-03-28T23:17:47.538Z,100.00
2023-03-28T23:20:15.828Z,100.00
2023-03-28T23:22:45.006Z,100.00
2023-03-28T23:25:14.976Z,100.00
2023-03-28T23:27:41.815Z,100.00
2023-03-28T23:30:10.888Z,100.00
2023-03-28T23:32:37.620Z,100.00
2023-03-28T23:35:06.025Z,100.00
2023-03-28T23:37:34.401Z,100.00
2023-03-28T23:40:01.167Z,100.00
2023-03-28T23:42:27.710Z,100.00
2023-03-28T23:44:54.293Z,100.00
2023-03-28T23:47:20.961Z,100.00
2023-03-28T23:49:47.554Z,100.00
2023-03-28T23:52:16.294Z,100.00
2023-03-28T23:54:43.417Z,100.00
2023-03-28T23:57:10.348Z,100.00
2023-03-28T23:59:37.077Z,100.00
